createdAt,value
2017-09-23T00:00:02.957Z,966.87
2017-09-23T00:00:43.501Z,966.85
2017-09-23T00:01:24.084Z,966.88
2017-09-23T00:02:04.618Z,966.87
2017-09-23T00:02:45.707Z,966.83
2017-09-23T00:03:26.292Z,966.83
2017-09-23T00:04:06.870Z,966.87
2017-09-23T00:04:47.431Z,966.87
2017-09-23T00:05:27.968Z,966.89
2017-09-23T00:06:08.526Z,966.9
2017-09-23T00:06:49.081Z,966.87
2017-09-23T00:07:29.659Z,966.92
2017-09-23T00:08:10.221Z,966.89
2017-09-23T00:08:50.779Z,966.88
2017-09-23T00:09:31.353Z,966.93
2017-09-23T00:10:11.950Z,966.89
2017-09-23T00:10:52.480Z,966.84
2017-09-23T00:11:33.041Z,966.86
2017-09-23T00:12:13.631Z,966.81
2017-09-23T00:12:54.155Z,966.82
2017-09-23T00:13:34.706Z,966.82
2017-09-23T00:14:15.268Z,966.83
2017-09-23T00:14:55.824Z,966.8
2017-09-23T00:15:36.381Z,966.8
2017-09-23T00:16:16.964Z,966.79
2017-09-23T00:16:57.540Z,966.82
2017-09-23T00:17:38.115Z,966.78
2017-09-23T00:18:18.703Z,966.77
2017-09-23T00:18:59.283Z,966.79
2017-09-23T00:19:39.855Z,966.83
2017-09-23T00:20:20.432Z,966.84
2017-09-23T00:21:00.997Z,966.8
2017-09-23T00:21:41.561Z,966.82
2017-09-23T00:22:22.102Z,966.8
2017-09-23T00:23:02.666Z,966.79
2017-09-23T00:23:43.234Z,966.78
2017-09-23T00:24:23.803Z,966.77
2017-09-23T00:25:04.343Z,966.78
2017-09-23T00:25:44.895Z,966.73
2017-09-23T00:26:25.454Z,966.76
2017-09-23T00:27:06.010Z,966.77
2017-09-23T00:27:46.570Z,966.78
2017-09-23T00:28:27.128Z,966.73
2017-09-23T00:29:07.683Z,966.73
2017-09-23T00:29:48.244Z,966.71
2017-09-23T00:30:28.798Z,966.71
2017-09-23T00:31:09.354Z,966.69
2017-09-23T00:31:49.920Z,966.69
2017-09-23T00:32:30.512Z,966.69
2017-09-23T00:33:11.035Z,966.71
2017-09-23T00:33:51.580Z,966.73
2017-09-23T00:34:32.133Z,966.71
2017-09-23T00:35:12.713Z,966.71
2017-09-23T00:35:53.853Z,966.68
2017-09-23T00:36:34.425Z,966.72
2017-09-23T00:37:15.586Z,966.7
2017-09-23T00:37:56.144Z,966.71
2017-09-23T00:38:36.698Z,966.76
2017-09-23T00:39:17.259Z,966.74
2017-09-23T00:39:57.829Z,966.73
2017-09-23T00:40:38.408Z,966.74
2017-09-23T00:41:18.984Z,966.77
2017-09-23T00:41:59.550Z,966.82
2017-09-23T00:42:40.128Z,966.77
2017-09-23T00:43:20.710Z,966.76
2017-09-23T00:44:01.299Z,966.77
2017-09-23T00:44:41.874Z,966.74
2017-09-23T00:45:22.452Z,966.82
2017-09-23T00:46:03.033Z,966.76
2017-09-23T00:46:43.602Z,966.8
2017-09-23T00:47:24.195Z,966.76
2017-09-23T00:48:04.767Z,966.77
2017-09-23T00:48:45.347Z,966.75
2017-09-23T00:49:25.930Z,966.78
2017-09-23T00:50:06.512Z,966.75
2017-09-23T00:50:47.096Z,966.75
2017-09-23T00:51:27.674Z,966.74
2017-09-23T00:52:08.258Z,966.77
2017-09-23T00:52:48.836Z,966.72
2017-09-23T00:53:29.415Z,966.72
2017-09-23T00:54:09.998Z,966.72
2017-09-23T00:54:50.570Z,966.72
2017-09-23T00:55:31.143Z,966.68
2017-09-23T00:56:11.725Z,966.7
2017-09-23T00:56:52.302Z,966.69
2017-09-23T00:57:32.888Z,966.63
2017-09-23T00:58:13.461Z,966.66
2017-09-23T00:58:54.041Z,966.65
2017-09-23T00:59:34.604Z,966.68
2017-09-23T01:00:15.182Z,966.66
2017-09-23T01:00:55.762Z,966.66
2017-09-23T01:01:36.345Z,966.64
2017-09-23T01:02:16.925Z,966.66
2017-09-23T01:02:57.500Z,966.61
2017-09-23T01:03:38.087Z,966.63
2017-09-23T01:04:18.666Z,966.6
2017-09-23T01:04:59.252Z,966.63
2017-09-23T01:05:40.167Z,966.66
2017-09-23T01:06:20.677Z,966.64
2017-09-23T01:07:01.257Z,966.63
2017-09-23T01:07:41.845Z,966.61
2017-09-23T01:08:22.425Z,966.62
2017-09-23T01:09:02.999Z,966.64
2017-09-23T01:09:43.574Z,966.61
2017-09-23T01:10:24.156Z,966.57
2017-09-23T01:11:04.734Z,966.62
2017-09-23T01:11:45.320Z,966.61
2017-09-23T01:12:25.910Z,966.59
2017-09-23T01:13:06.483Z,966.59
2017-09-23T01:13:47.067Z,966.6
2017-09-23T01:14:27.647Z,966.57
2017-09-23T01:15:08.225Z,966.61
2017-09-23T01:15:48.805Z,966.6
2017-09-23T01:16:29.383Z,966.55
2017-09-23T01:17:09.980Z,966.61
2017-09-23T01:17:50.541Z,966.56
2017-09-23T01:18:31.120Z,966.61
2017-09-23T01:19:11.684Z,966.6
2017-09-23T01:19:52.264Z,966.56
2017-09-23T01:20:32.850Z,966.56
2017-09-23T01:21:13.422Z,966.55
2017-09-23T01:21:54.005Z,966.53
2017-09-23T01:22:34.576Z,966.55
2017-09-23T01:23:15.157Z,966.51
2017-09-23T01:23:55.805Z,966.54
2017-09-23T01:24:36.382Z,966.54
2017-09-23T01:25:16.960Z,966.57
2017-09-23T01:25:57.540Z,966.5
2017-09-23T01:26:38.114Z,966.53
2017-09-23T01:27:18.681Z,966.49
2017-09-23T01:27:59.249Z,966.48
2017-09-23T01:28:39.823Z,966.46
2017-09-23T01:29:20.395Z,966.46
2017-09-23T01:30:00.987Z,966.47
2017-09-23T01:30:41.560Z,966.46
2017-09-23T01:31:22.122Z,966.47
2017-09-23T01:32:02.702Z,966.46
2017-09-23T01:32:43.287Z,966.44
2017-09-23T01:33:23.860Z,966.45
2017-09-23T01:34:04.438Z,966.48
2017-09-23T01:34:45.009Z,966.44
2017-09-23T01:35:25.570Z,966.44
2017-09-23T01:36:06.147Z,966.51
2017-09-23T01:36:46.732Z,966.5
2017-09-23T01:37:27.307Z,966.47
2017-09-23T01:38:07.886Z,966.48
2017-09-23T01:38:48.975Z,966.49
2017-09-23T01:39:29.564Z,966.5
2017-09-23T01:40:10.145Z,966.51
2017-09-23T01:40:50.733Z,966.49
2017-09-23T01:41:31.312Z,966.46
2017-09-23T01:42:11.878Z,966.49
2017-09-23T01:42:52.437Z,966.5
2017-09-23T01:43:33.002Z,966.46
2017-09-23T01:44:13.571Z,966.44
2017-09-23T01:44:54.143Z,966.43
2017-09-23T01:45:34.714Z,966.45
2017-09-23T01:46:15.301Z,966.45
2017-09-23T01:46:55.864Z,966.44
2017-09-23T01:47:36.445Z,966.41
2017-09-23T01:48:17.009Z,966.44
2017-09-23T01:48:57.580Z,966.4
2017-09-23T01:49:38.166Z,966.42
2017-09-23T01:50:18.743Z,966.39
2017-09-23T01:50:59.322Z,966.41
2017-09-23T01:51:39.909Z,966.44
2017-09-23T01:52:20.493Z,966.42
2017-09-23T01:53:01.068Z,966.44
2017-09-23T01:53:41.645Z,966.41
2017-09-23T01:54:22.215Z,966.44
2017-09-23T01:55:02.794Z,966.43
2017-09-23T01:55:43.369Z,966.42
2017-09-23T01:56:23.960Z,966.43
2017-09-23T01:57:04.543Z,966.44
2017-09-23T01:57:45.109Z,966.44
2017-09-23T01:58:25.673Z,966.41
2017-09-23T01:59:06.227Z,966.44
2017-09-23T01:59:46.798Z,966.41
2017-09-23T02:00:27.370Z,966.38
2017-09-23T02:01:07.953Z,966.43
2017-09-23T02:01:48.523Z,966.4
2017-09-23T02:02:29.088Z,966.42
2017-09-23T02:03:09.675Z,966.44
2017-09-23T02:03:50.250Z,966.38
2017-09-23T02:04:30.832Z,966.4
2017-09-23T02:05:11.410Z,966.39
2017-09-23T02:05:51.997Z,966.38
2017-09-23T02:06:33.219Z,966.38
2017-09-23T02:07:13.801Z,966.36
2017-09-23T02:07:55.206Z,966.35
2017-09-23T02:08:35.785Z,966.36
2017-09-23T02:09:16.362Z,966.34
2017-09-23T02:09:56.938Z,966.32
2017-09-23T02:10:38.370Z,966.33
2017-09-23T02:11:18.957Z,966.31
2017-09-23T02:11:59.531Z,966.32
2017-09-23T02:12:40.113Z,966.31
2017-09-23T02:13:20.693Z,966.31
2017-09-23T02:14:01.274Z,966.32
2017-09-23T02:14:42.710Z,966.28
2017-09-23T02:15:23.301Z,966.3
2017-09-23T02:16:03.891Z,966.28
2017-09-23T02:16:44.460Z,966.36
2017-09-23T02:17:25.041Z,966.25
2017-09-23T02:18:05.610Z,966.29
2017-09-23T02:18:46.194Z,966.27
2017-09-23T02:19:27.351Z,966.26
2017-09-23T02:20:08.718Z,966.21
2017-09-23T02:20:49.292Z,966.27
2017-09-23T02:21:29.870Z,966.26
2017-09-23T02:22:10.447Z,966.26
2017-09-23T02:22:51.030Z,966.26
2017-09-23T02:23:31.600Z,966.26
2017-09-23T02:24:12.178Z,966.24
2017-09-23T02:24:52.756Z,966.24
2017-09-23T02:25:33.333Z,966.25
2017-09-23T02:26:13.914Z,966.28
2017-09-23T02:26:54.497Z,966.24
2017-09-23T02:27:35.065Z,966.23
2017-09-23T02:28:15.635Z,966.21
2017-09-23T02:28:56.218Z,966.22
2017-09-23T02:29:36.800Z,966.21
2017-09-23T02:30:17.381Z,966.22
2017-09-23T02:30:57.961Z,966.24
2017-09-23T02:31:38.538Z,966.19
2017-09-23T02:32:19.115Z,966.21
2017-09-23T02:32:59.701Z,966.2
2017-09-23T02:33:40.287Z,966.17
2017-09-23T02:34:20.859Z,966.16
2017-09-23T02:35:01.437Z,966.15
2017-09-23T02:35:42.021Z,966.16
2017-09-23T02:36:22.600Z,966.14
2017-09-23T02:37:03.178Z,966.19
2017-09-23T02:37:43.764Z,966.15
2017-09-23T02:38:24.344Z,966.19
2017-09-23T02:39:04.921Z,966.18
2017-09-23T02:39:45.502Z,966.15
2017-09-23T02:40:26.097Z,966.16
2017-09-23T02:41:06.659Z,966.18
2017-09-23T02:41:47.235Z,966.08
2017-09-23T02:42:27.821Z,966.13
2017-09-23T02:43:08.398Z,966.11
2017-09-23T02:43:48.975Z,966.16
2017-09-23T02:44:29.558Z,966.14
2017-09-23T02:45:10.128Z,966.14
2017-09-23T02:45:50.710Z,966.1
2017-09-23T02:46:31.276Z,966.08
2017-09-23T02:47:11.864Z,966.1
2017-09-23T02:47:52.437Z,966.08
2017-09-23T02:48:33.020Z,966.11
2017-09-23T02:49:13.604Z,966.09
2017-09-23T02:49:54.185Z,966.11
2017-09-23T02:50:34.742Z,966.14
2017-09-23T02:51:15.317Z,966.12
2017-09-23T02:51:55.897Z,966.1
2017-09-23T02:52:36.474Z,966.11
2017-09-23T02:53:17.054Z,966.1
2017-09-23T02:53:57.655Z,966.11
2017-09-23T02:54:38.243Z,966.1
2017-09-23T02:55:18.809Z,966.08
2017-09-23T02:55:59.392Z,966.15
2017-09-23T02:56:39.969Z,966.13
2017-09-23T02:57:20.579Z,966.1
2017-09-23T02:58:01.155Z,966.13
2017-09-23T02:58:41.741Z,966.08
2017-09-23T02:59:22.322Z,966.1
2017-09-23T03:00:02.904Z,966.1
2017-09-23T03:00:43.488Z,966.09
2017-09-23T03:01:24.059Z,966.09
2017-09-23T03:02:04.644Z,966.09
2017-09-23T03:02:45.224Z,966.04
2017-09-23T03:03:25.811Z,966.09
2017-09-23T03:04:06.420Z,966.06
2017-09-23T03:04:46.970Z,966.05
2017-09-23T03:05:27.555Z,966.01
2017-09-23T03:06:08.136Z,966.03
2017-09-23T03:06:48.718Z,966.04
2017-09-23T03:07:29.308Z,966.07
2017-09-23T03:08:09.875Z,966.06
2017-09-23T03:08:50.434Z,966.07
2017-09-23T03:09:31.034Z,966.06
2017-09-23T03:10:11.599Z,966.08
2017-09-23T03:10:52.179Z,966.05
2017-09-23T03:11:33.604Z,966.09
2017-09-23T03:12:14.184Z,966.09
2017-09-23T03:12:54.761Z,966.08
2017-09-23T03:13:35.343Z,966.1
2017-09-23T03:14:15.909Z,966.07
2017-09-23T03:14:56.487Z,966.03
2017-09-23T03:15:37.070Z,966.03
2017-09-23T03:16:17.648Z,966.06
2017-09-23T03:16:58.231Z,966.05
2017-09-23T03:17:38.813Z,966.02
2017-09-23T03:18:19.397Z,965.97
2017-09-23T03:18:59.983Z,966.01
2017-09-23T03:19:40.567Z,965.99
2017-09-23T03:20:21.132Z,966
2017-09-23T03:21:01.701Z,965.97
2017-09-23T03:21:42.269Z,966.02
2017-09-23T03:22:22.841Z,965.98
2017-09-23T03:23:03.427Z,966.04
2017-09-23T03:23:44.007Z,966.02
2017-09-23T03:24:24.594Z,966.01
2017-09-23T03:25:05.171Z,966.02
2017-09-23T03:25:45.758Z,966
2017-09-23T03:26:26.341Z,966
2017-09-23T03:27:06.917Z,966.01
2017-09-23T03:27:47.505Z,966.01
2017-09-23T03:28:28.089Z,966.01
2017-09-23T03:29:08.672Z,966.02
2017-09-23T03:29:49.247Z,965.98
2017-09-23T03:30:29.825Z,966.04
2017-09-23T03:31:10.406Z,966.04
2017-09-23T03:31:50.987Z,966.05
2017-09-23T03:32:31.572Z,966.08
2017-09-23T03:33:12.153Z,966.04
2017-09-23T03:33:52.735Z,966.07
2017-09-23T03:34:33.321Z,966.09
2017-09-23T03:35:13.897Z,966.06
2017-09-23T03:35:54.483Z,966.1
2017-09-23T03:36:35.063Z,966.07
2017-09-23T03:37:15.645Z,966.1
2017-09-23T03:37:56.226Z,966.07
2017-09-23T03:38:36.806Z,966.12
2017-09-23T03:39:17.383Z,966.07
2017-09-23T03:41:35.331Z,966.07
2017-09-23T03:42:15.910Z,966.07
2017-09-23T03:42:56.495Z,966.1
2017-09-23T03:43:37.076Z,966.07
2017-09-23T03:44:17.648Z,966.1
2017-09-23T03:44:58.225Z,966.12
2017-09-23T03:45:38.802Z,966.11
2017-09-23T03:46:19.366Z,966.12
2017-09-23T03:46:59.943Z,966.14
2017-09-23T03:47:40.516Z,966.13
2017-09-23T03:48:21.599Z,966.15
2017-09-23T03:49:02.167Z,966.12
2017-09-23T03:49:42.734Z,966.16
2017-09-23T03:50:23.307Z,966.13
2017-09-23T03:51:03.887Z,966.15
2017-09-23T03:51:44.460Z,966.11
2017-09-23T03:52:25.036Z,966.14
2017-09-23T03:53:05.599Z,966.11
2017-09-23T03:53:46.156Z,966.14
2017-09-23T03:54:26.721Z,966.12
2017-09-23T03:55:07.285Z,966.13
2017-09-23T03:55:47.843Z,966.14
2017-09-23T03:56:28.408Z,966.15
2017-09-23T03:58:46.410Z,966.16
2017-09-23T03:59:26.930Z,966.17
2017-09-23T04:00:07.527Z,966.18
2017-09-23T04:00:48.091Z,966.16
2017-09-23T04:01:28.654Z,966.18
2017-09-23T04:02:09.231Z,966.21
2017-09-23T04:02:49.817Z,966.19
2017-09-23T04:03:30.388Z,966.2
2017-09-23T04:05:48.340Z,966.17
2017-09-23T04:06:28.907Z,966.22
2017-09-23T04:07:09.482Z,966.15
2017-09-23T04:07:50.073Z,966.15
2017-09-23T04:08:30.632Z,966.18
2017-09-23T04:09:11.226Z,966.17
2017-09-23T04:09:51.808Z,966.2
2017-09-23T04:10:32.381Z,966.17
2017-09-23T04:11:12.970Z,966.12
2017-09-23T04:11:53.537Z,966.11
2017-09-23T04:12:34.103Z,966.13
2017-09-23T04:13:14.693Z,966.13
2017-09-23T04:13:55.261Z,966.14
2017-09-23T04:14:35.853Z,966.1
2017-09-23T04:15:16.425Z,966.07
2017-09-23T04:17:34.366Z,966.09
2017-09-23T04:18:14.939Z,966.12
2017-09-23T04:18:55.519Z,966.06
2017-09-23T04:19:36.098Z,966.1
2017-09-23T04:20:16.680Z,966.07
2017-09-23T04:20:57.257Z,966.02
2017-09-23T04:21:37.833Z,966.06
2017-09-23T04:22:18.422Z,966.06
2017-09-23T04:22:58.997Z,966.04
2017-09-23T04:23:39.575Z,966.01
2017-09-23T04:24:20.145Z,966.04
2017-09-23T04:25:00.717Z,966.01
2017-09-23T04:25:41.299Z,966
2017-09-23T04:26:21.864Z,966.04
2017-09-23T04:27:02.447Z,966.02
2017-09-23T04:27:43.024Z,966.03
2017-09-23T04:28:23.599Z,965.99
2017-09-23T04:29:04.169Z,965.98
2017-09-23T04:29:44.755Z,966
2017-09-23T04:30:25.334Z,965.99
2017-09-23T04:31:05.914Z,965.98
2017-09-23T04:31:46.494Z,965.95
2017-09-23T04:32:27.075Z,965.98
2017-09-23T04:33:07.636Z,965.98
2017-09-23T04:33:48.210Z,965.98
2017-09-23T04:34:28.784Z,965.96
2017-09-23T04:35:09.367Z,966
2017-09-23T04:35:49.954Z,966
2017-09-23T04:36:30.536Z,966
2017-09-23T04:37:11.104Z,965.95
2017-09-23T04:37:51.677Z,965.97
2017-09-23T04:38:32.232Z,966.03
2017-09-23T04:39:12.814Z,966.04
2017-09-23T04:39:53.404Z,965.99
2017-09-23T04:40:33.957Z,966.02
2017-09-23T04:41:14.525Z,965.97
2017-09-23T04:41:55.105Z,965.99
2017-09-23T04:42:35.684Z,966
2017-09-23T04:43:16.266Z,966.03
2017-09-23T04:43:56.832Z,966.01
2017-09-23T04:44:37.401Z,966
2017-09-23T04:45:17.984Z,966
2017-09-23T04:45:58.556Z,966.01
2017-09-23T04:46:39.129Z,966.01
2017-09-23T04:47:19.706Z,966
2017-09-23T04:48:00.282Z,966.02
2017-09-23T04:48:40.866Z,966.03
2017-09-23T04:49:21.444Z,966.01
2017-09-23T04:50:02.018Z,966.03
2017-09-23T04:50:42.581Z,966.08
2017-09-23T04:51:23.146Z,966.04
2017-09-23T04:52:03.721Z,966.07
2017-09-23T04:52:44.303Z,966.07
2017-09-23T04:53:24.889Z,966.04
2017-09-23T04:54:05.469Z,966.07
2017-09-23T04:54:46.045Z,966.05
2017-09-23T04:55:26.624Z,966.09
2017-09-23T04:56:07.201Z,966.08
2017-09-23T04:56:47.772Z,966.08
2017-09-23T04:57:28.332Z,966.08
2017-09-23T04:58:08.891Z,966.08
2017-09-23T04:58:49.443Z,966.1
2017-09-23T04:59:30.009Z,966.09
2017-09-23T05:00:10.580Z,966.05
2017-09-23T05:00:51.163Z,966.11
2017-09-23T05:01:31.743Z,966.12
2017-09-23T05:02:12.394Z,966.05
2017-09-23T05:02:52.965Z,966.07
2017-09-23T05:03:33.548Z,966.09
2017-09-23T05:04:14.108Z,966.08
2017-09-23T05:04:54.689Z,966.1
2017-09-23T05:05:35.332Z,966.06
2017-09-23T05:06:15.911Z,966.06
2017-09-23T05:06:56.490Z,966.09
2017-09-23T05:07:37.091Z,966.1
2017-09-23T05:08:18.277Z,966.13
2017-09-23T05:08:58.863Z,966.07
2017-09-23T05:09:39.476Z,966.1
2017-09-23T05:10:20.212Z,966.11
2017-09-23T05:11:00.810Z,966.11
2017-09-23T05:11:41.390Z,966.1
2017-09-23T05:12:21.976Z,966.12
2017-09-23T05:13:02.694Z,966.13
2017-09-23T05:13:43.323Z,966.13
2017-09-23T05:14:23.914Z,966.09
2017-09-23T05:15:04.528Z,966.12
2017-09-23T05:15:45.104Z,966.09
2017-09-23T05:16:25.718Z,966.08
2017-09-23T05:17:06.307Z,966.11
2017-09-23T05:17:46.937Z,966.13
2017-09-23T05:18:27.549Z,966.13
2017-09-23T05:19:08.184Z,966.16
2017-09-23T05:19:48.799Z,966.12
2017-09-23T05:20:29.435Z,966.14
2017-09-23T05:21:10.040Z,966.15
2017-09-23T05:21:50.640Z,966.14
2017-09-23T05:22:31.336Z,966.18
2017-09-23T05:23:11.927Z,966.14
2017-09-23T05:23:52.492Z,966.17
2017-09-23T05:24:33.102Z,966.16
2017-09-23T05:25:13.719Z,966.15
2017-09-23T05:25:54.324Z,966.14
2017-09-23T05:26:34.945Z,966.14
2017-09-23T05:27:15.560Z,966.16
2017-09-23T05:27:56.186Z,966.13
2017-09-23T05:28:36.908Z,966.15
2017-09-23T05:29:17.488Z,966.12
2017-09-23T05:29:58.171Z,966.09
2017-09-23T05:30:38.777Z,966.16
2017-09-23T05:31:19.418Z,966.12
2017-09-23T05:32:00.008Z,966.12
2017-09-23T05:32:40.679Z,966.13
2017-09-23T05:33:21.292Z,966.16
2017-09-23T05:34:01.914Z,966.19
2017-09-23T05:34:42.482Z,966.18
2017-09-23T05:35:23.102Z,966.17
2017-09-23T05:36:03.778Z,966.18
2017-09-23T05:36:44.529Z,966.15
2017-09-23T05:37:25.140Z,966.14
2017-09-23T05:38:05.716Z,966.19
2017-09-23T05:38:46.287Z,966.13
2017-09-23T05:39:26.866Z,966.14
2017-09-23T05:40:07.439Z,966.17
2017-09-23T05:40:48.017Z,966.17
2017-09-23T05:41:28.614Z,966.14
2017-09-23T05:42:09.179Z,966.17
2017-09-23T05:42:49.761Z,966.18
2017-09-23T05:43:30.331Z,966.17
2017-09-23T05:44:10.908Z,966.14
2017-09-23T05:44:51.498Z,966.18
2017-09-23T05:45:32.069Z,966.2
2017-09-23T05:46:12.641Z,966.2
2017-09-23T05:46:53.218Z,966.22
2017-09-23T05:47:33.818Z,966.22
2017-09-23T05:48:14.446Z,966.23
2017-09-23T05:48:55.019Z,966.21
2017-09-23T05:49:35.644Z,966.2
2017-09-23T05:50:16.202Z,966.23
2017-09-23T05:50:56.816Z,966.19
2017-09-23T05:51:37.402Z,966.18
2017-09-23T05:52:18.010Z,966.22
2017-09-23T05:52:58.596Z,966.17
2017-09-23T05:53:39.170Z,966.15
2017-09-23T05:54:19.734Z,966.18
2017-09-23T05:55:00.335Z,966.11
2017-09-23T05:55:40.919Z,966.12
2017-09-23T05:56:21.488Z,966.13
2017-09-23T05:57:02.068Z,966.11
2017-09-23T05:57:42.647Z,966.13
2017-09-23T05:58:23.233Z,966.14
2017-09-23T05:59:03.803Z,966.15
2017-09-23T05:59:44.393Z,966.13
2017-09-23T06:00:24.977Z,966.1
2017-09-23T06:01:05.547Z,966.09
2017-09-23T06:01:46.128Z,966.12
2017-09-23T06:02:26.716Z,966.12
2017-09-23T06:03:07.293Z,966.11
2017-09-23T06:03:47.871Z,966.08
2017-09-23T06:04:28.449Z,966.13
2017-09-23T06:05:09.037Z,966.11
2017-09-23T06:05:49.608Z,966.13
2017-09-23T06:06:30.187Z,966.11
2017-09-23T06:07:10.773Z,966.13
2017-09-23T06:07:51.342Z,966.12
2017-09-23T06:08:31.928Z,966.13
2017-09-23T06:09:12.504Z,966.15
2017-09-23T06:09:53.071Z,966.14
2017-09-23T06:10:33.742Z,966.18
2017-09-23T06:11:14.428Z,966.15
2017-09-23T06:11:55.033Z,966.18
2017-09-23T06:12:35.767Z,966.22
2017-09-23T06:13:16.431Z,966.23
2017-09-23T06:13:57.153Z,966.25
2017-09-23T06:14:37.743Z,966.24
2017-09-23T06:15:18.445Z,966.28
2017-09-23T06:15:59.332Z,966.26
2017-09-23T06:16:39.981Z,966.27
2017-09-23T06:17:20.560Z,966.28
2017-09-23T06:18:01.147Z,966.29
2017-09-23T06:18:41.965Z,966.33
2017-09-23T06:19:22.543Z,966.25
2017-09-23T06:20:03.122Z,966.31
2017-09-23T06:20:43.699Z,966.34
2017-09-23T06:21:24.557Z,966.34
2017-09-23T06:22:05.271Z,966.36
2017-09-23T06:22:46.016Z,966.37
2017-09-23T06:23:27.187Z,966.35
2017-09-23T06:24:07.735Z,966.32
2017-09-23T06:24:48.426Z,966.35
2017-09-23T06:25:29.009Z,966.38
2017-09-23T06:26:09.580Z,966.41
2017-09-23T06:26:50.165Z,966.42
2017-09-23T06:27:30.749Z,966.43
2017-09-23T06:28:11.406Z,966.47
2017-09-23T06:28:51.984Z,966.44
2017-09-23T06:29:32.797Z,966.48
2017-09-23T06:30:13.348Z,966.48
2017-09-23T06:30:54.074Z,966.49
2017-09-23T06:31:34.752Z,966.49
2017-09-23T06:32:15.333Z,966.47
2017-09-23T06:32:55.913Z,966.45
2017-09-23T06:33:36.495Z,966.46
2017-09-23T06:34:17.106Z,966.49
2017-09-23T06:34:57.832Z,966.49
2017-09-23T06:35:38.430Z,966.5
2017-09-23T06:36:19.132Z,966.45
2017-09-23T06:36:59.831Z,966.51
2017-09-23T06:37:40.480Z,966.53
2017-09-23T06:38:21.224Z,966.5
2017-09-23T06:39:01.854Z,966.57
2017-09-23T06:39:42.400Z,966.6
2017-09-23T06:40:22.967Z,966.57
2017-09-23T06:41:03.660Z,966.56
2017-09-23T06:41:44.441Z,966.52
2017-09-23T06:42:25.266Z,966.58
2017-09-23T06:43:05.915Z,966.51
2017-09-23T06:43:46.492Z,966.51
2017-09-23T06:44:27.074Z,966.53
2017-09-23T06:45:07.723Z,966.51
2017-09-23T06:45:48.406Z,966.48
2017-09-23T06:46:29.037Z,966.52
2017-09-23T06:47:09.654Z,966.5
2017-09-23T06:47:50.325Z,966.5
2017-09-23T06:48:31.072Z,966.49
2017-09-23T06:49:11.659Z,966.51
2017-09-23T06:49:52.323Z,966.48
2017-09-23T06:50:32.898Z,966.47
2017-09-23T06:51:13.611Z,966.46
2017-09-23T06:51:54.213Z,966.5
2017-09-23T06:52:34.943Z,966.48
2017-09-23T06:53:15.731Z,966.47
2017-09-23T06:53:56.467Z,966.49
2017-09-23T06:54:37.352Z,966.49
2017-09-23T06:55:18.006Z,966.51
2017-09-23T06:55:58.618Z,966.47
2017-09-23T06:56:39.405Z,966.55
2017-09-23T06:57:19.974Z,966.52
2017-09-23T06:58:00.560Z,966.55
2017-09-23T06:58:41.138Z,966.54
2017-09-23T06:59:21.947Z,966.56
2017-09-23T07:00:02.524Z,966.55
2017-09-23T07:00:43.106Z,966.57
2017-09-23T07:01:23.686Z,966.59
2017-09-23T07:02:04.260Z,966.59
2017-09-23T07:02:44.821Z,966.61
2017-09-23T07:03:25.407Z,966.66
2017-09-23T07:04:05.992Z,966.64
2017-09-23T07:04:46.742Z,966.67
2017-09-23T07:05:28.389Z,966.65
2017-09-23T07:06:09.359Z,966.7
2017-09-23T07:06:50.182Z,966.67
2017-09-23T07:07:31.102Z,966.7
2017-09-23T07:08:12.001Z,966.62
2017-09-23T07:08:53.775Z,966.66
2017-09-23T07:09:34.666Z,966.65
2017-09-23T07:10:15.879Z,966.61
2017-09-23T07:10:56.464Z,966.62
2017-09-23T07:11:37.063Z,966.63
2017-09-23T07:12:17.835Z,966.57
2017-09-23T07:12:58.493Z,966.61
2017-09-23T07:13:39.178Z,966.63
2017-09-23T07:14:19.698Z,966.6
2017-09-23T07:15:00.269Z,966.62
2017-09-23T07:15:40.851Z,966.61
2017-09-23T07:16:21.430Z,966.64
2017-09-23T07:17:02.015Z,966.66
2017-09-23T07:17:42.600Z,966.66
2017-09-23T07:18:23.186Z,966.65
2017-09-23T07:19:03.773Z,966.66
2017-09-23T07:19:44.347Z,966.64
2017-09-23T07:20:24.932Z,966.67
2017-09-23T07:21:05.508Z,966.63
2017-09-23T07:21:46.094Z,966.67
2017-09-23T07:22:26.715Z,966.67
2017-09-23T07:23:07.308Z,966.69
2017-09-23T07:23:47.894Z,966.71
2017-09-23T07:24:28.474Z,966.68
2017-09-23T07:25:09.053Z,966.72
2017-09-23T07:25:49.623Z,966.72
2017-09-23T07:26:30.204Z,966.68
2017-09-23T07:27:10.789Z,966.76
2017-09-23T07:27:51.366Z,966.76
2017-09-23T07:28:31.949Z,966.78
2017-09-23T07:29:12.521Z,966.79
2017-09-23T07:29:53.099Z,966.75
2017-09-23T07:30:33.679Z,966.78
2017-09-23T07:31:14.264Z,966.76
2017-09-23T07:31:54.844Z,966.76
2017-09-23T07:32:35.424Z,966.76
2017-09-23T07:33:16.003Z,966.76
2017-09-23T07:33:56.587Z,966.78
2017-09-23T07:34:37.171Z,966.79
2017-09-23T07:35:17.754Z,966.76
2017-09-23T07:35:58.321Z,966.76
2017-09-23T07:36:38.896Z,966.77
2017-09-23T07:37:19.476Z,966.81
2017-09-23T07:38:00.050Z,966.8
2017-09-23T07:38:40.631Z,966.76
2017-09-23T07:39:21.211Z,966.83
2017-09-23T07:40:01.786Z,966.84
2017-09-23T07:40:42.377Z,966.87
2017-09-23T07:41:22.943Z,966.88
2017-09-23T07:42:03.522Z,966.87
2017-09-23T07:42:44.103Z,966.94
2017-09-23T07:43:24.689Z,966.92
2017-09-23T07:44:05.269Z,966.93
2017-09-23T07:44:45.849Z,966.97
2017-09-23T07:45:26.420Z,966.93
2017-09-23T07:46:06.996Z,966.97
2017-09-23T07:46:47.586Z,966.97
2017-09-23T07:47:28.177Z,966.93
2017-09-23T07:48:23.386Z,966.95
2017-09-23T07:49:03.971Z,966.95
2017-09-23T07:49:44.554Z,966.96
2017-09-23T07:50:25.137Z,966.96
2017-09-23T07:51:05.712Z,966.95
2017-09-23T07:51:46.281Z,966.96
2017-09-23T07:52:26.863Z,966.95
2017-09-23T07:53:07.445Z,966.98
2017-09-23T07:53:48.028Z,966.96
2017-09-23T07:54:28.610Z,966.93
2017-09-23T07:55:09.187Z,966.96
2017-09-23T07:55:49.776Z,966.95
2017-09-23T07:56:30.346Z,966.97
2017-09-23T07:57:10.923Z,966.97
2017-09-23T07:57:51.503Z,966.96
2017-09-23T07:58:32.065Z,966.96
2017-09-23T07:59:12.650Z,966.97
2017-09-23T07:59:53.235Z,967
2017-09-23T08:00:33.812Z,967.07
2017-09-23T08:01:14.401Z,966.98
2017-09-23T08:01:54.981Z,966.99
2017-09-23T08:02:35.565Z,967
2017-09-23T08:03:16.146Z,967
2017-09-23T08:03:56.730Z,967.02
2017-09-23T08:04:37.314Z,967.04
2017-09-23T08:05:17.896Z,967.05
2017-09-23T08:05:58.488Z,967.03
2017-09-23T08:06:39.068Z,967.02
2017-09-23T08:07:19.644Z,967.07
2017-09-23T08:08:00.230Z,967.06
2017-09-23T08:08:40.809Z,967.03
2017-09-23T08:09:21.400Z,967.04
2017-09-23T08:10:01.981Z,967.06
2017-09-23T08:10:42.561Z,967.05
2017-09-23T08:11:23.144Z,967.03
2017-09-23T08:12:03.758Z,967.06
2017-09-23T08:12:44.335Z,967.02
2017-09-23T08:13:24.903Z,967.03
2017-09-23T08:14:05.482Z,967.01
2017-09-23T08:14:46.063Z,967.04
2017-09-23T08:15:26.647Z,967.01
2017-09-23T08:16:07.230Z,967.03
2017-09-23T08:16:47.795Z,967.02
2017-09-23T08:17:28.369Z,967.04
2017-09-23T08:18:08.966Z,967.02
2017-09-23T08:18:49.551Z,967.05
2017-09-23T08:19:30.131Z,967.09
2017-09-23T08:20:10.717Z,967.08
2017-09-23T08:20:51.298Z,967.08
2017-09-23T08:21:31.883Z,967.13
2017-09-23T08:22:12.453Z,967.1
2017-09-23T08:22:53.026Z,967.05
2017-09-23T08:23:33.620Z,967.09
2017-09-23T08:24:14.205Z,967.03
2017-09-23T08:24:54.787Z,967.01
2017-09-23T08:25:35.367Z,967.01
2017-09-23T08:26:15.951Z,966.99
2017-09-23T08:26:56.528Z,967.01
2017-09-23T08:27:37.118Z,967.05
2017-09-23T08:28:17.693Z,967.08
2017-09-23T08:28:58.283Z,967.05
2017-09-23T08:29:38.869Z,967.39
2017-09-23T08:30:19.456Z,967.38
2017-09-23T08:31:00.034Z,967.23
2017-09-23T08:31:40.623Z,967.29
2017-09-23T08:32:21.204Z,967.17
2017-09-23T08:33:01.781Z,967.43
2017-09-23T08:33:42.370Z,967.19
2017-09-23T08:34:22.974Z,967.14
2017-09-23T08:35:03.545Z,967.07